Smith Valley, Nevada Weather observations

Data are for 10 minute period ending at time listed.
 Day   Time   Solar   Ave.   Ave.  Ave.  Vector  Max.   Baro.   Total    
  of    of     Rad.   Air    Rel.  Wind   Wind   Wind  Press.  Precip.   
Year   Day            Temp.  Hum.  Speed  Dir.   Gust                    
2026   (PST)  Kw/m2    F      %     mph   deg.    mph    mb.     in.     
-------------------------------------------------------------------------
 241   20:10   0.00   66.7    33    5.8   269     8.3   853.1    0.00 
 241   20:20   0.00   67.0    32    5.9   273     9.5   853.1    0.00 
 241   20:30   0.00   66.8    33    5.3   262     8.6   853.1    0.00 
 241   20:40   0.00   67.4    32    7.2   251    13.2   853.1    0.00 
 241   20:50   0.00   68.2    32    5.4   223    12.1   853.1    0.00 
 241   21:00   0.00   63.7    41    4.7   116     7.2   853.1    0.00 
 241   21:10   0.00   62.0    44    4.6   120     8.5   853.1    0.00 
 241   21:20   0.00   62.0    42    5.7   117     8.6   853.3    0.00 
 241   21:30   0.00   63.5    40    4.9    99     7.9   853.3    0.00 
 241   21:40   0.00   64.2    39    3.9   115     7.7   853.3    0.00 
 241   21:50   0.00   62.9    41    2.6   309     4.6   853.2    0.00 
 241   22:00   0.00   64.3    36    1.9   127     7.9   853.2    0.00 
 241   22:10   0.00   65.5    34    3.3    50     5.4   853.2    0.00 
 241   22:20   0.00   65.2    34    4.1    89     6.9   853.2    0.00 
 241   22:30   0.00   63.8    37    1.9   202     4.4   853.1    0.00 
 241   22:40   0.00   62.9    36    4.1   134     7.2   853.1    0.00 
 241   22:50   0.00   63.4    34    6.7   121     8.6   853.1    0.00 
 241   23:00   0.00   63.7    33    5.7   110     8.4   853.2    0.00 
 241   23:10   0.00   63.2    33    5.2   122     7.8   853.3    0.00 
 241   23:20   0.00   63.5    33    2.7   153     5.0   853.4    0.00 
 241   23:30   0.00   62.2    34    2.2   273     4.1   853.5    0.00 
 241   23:40   0.00   62.1    34    3.9   188     7.9   853.4    0.00 
 241   23:50   0.00   61.1    38    5.5   199     7.8   853.5    0.00 
 242    0:00   0.00   60.5    39    4.5   202     5.7   853.5    0.00 
 242    0:10   0.00   57.3    50    3.7   249     6.0   853.7    0.00 
 242    0:20   0.00   55.1    52    3.1   331     6.0   853.7    0.00 
 242    0:30   0.00   56.6    48    0.8   218     3.6   853.8    0.00 
 242    0:40   0.00   55.7    50    2.0   163     4.5   853.8    0.00 
 242    0:50   0.00   51.7    61    2.9   206     5.8   853.8    0.00 
 242    1:00   0.00   50.3    64    2.1   143     4.4   853.8    0.00 
 242    1:10   0.00   51.3    61    2.0   130     3.2   853.8    0.00 
 242    1:20   0.00   50.3    64    2.5   196     4.6   853.7    0.00 
 242    1:30   0.00   48.3    73    2.7   254     3.8   853.8    0.00 
 242    1:40   0.00   47.8    74    2.4   146     6.2   853.8    0.00 
 242    1:50   0.00   48.6    72    1.2   181     4.0   853.8    0.00 
 242    2:00   0.00   46.7    75    3.7   203     6.6   853.9    0.00 
 242    2:10   0.00   46.5    76    4.4   233     5.8   854.0    0.00 
 242    2:20   0.00   48.3    65    4.9    53     9.5   854.2    0.00 
 242    2:30   0.00   54.5    45    4.3   127     5.6   854.2    0.00 
 242    2:40   0.00   53.3    48    1.8   202     5.1   854.1    0.00 
 242    2:50   0.00   51.0    57    4.0   218     5.8   854.1    0.00 
 242    3:00   0.00   50.0    59    2.0   183     5.4   854.3    0.00 
 242    3:10   0.00   49.4    60    2.6    56     6.3   854.3    0.00 
 242    3:20   0.00   48.4    62    2.7    96     5.0   854.3    0.00 
 242    3:30   0.00   46.2    71    2.8   180     6.8   854.4    0.00 
 242    3:40   0.00   44.2    79    2.5   233     3.6   854.5    0.00 
 242    3:50   0.00   43.1    82    2.6   124     6.1   854.6    0.00 
 242    4:00   0.00   45.7    66    2.6   122     3.5   854.6    0.00 
 242    4:10   0.00   44.0    74    3.1   199     4.6   854.7    0.00 
 242    4:20   0.00   42.6    75    2.2   206     3.8   854.7    0.00 
 242    4:30   0.00   42.1    78    3.1   195     4.2   854.7    0.00 
 242    4:40   0.00   42.2    81    2.1   185     3.9   854.8    0.00 
 242    4:50   0.00   41.9    81    2.7    97     5.9   854.8    0.00 
 242    5:00   0.00   41.8    82    2.4   175     3.2   854.9    0.00 
 242    5:10   0.00   41.1    80    1.4   187     4.6   854.9    0.00 
 242    5:20   0.00   41.3    78    2.4   100     3.7   855.0    0.00 
 242    5:30   0.00   40.9    81    3.5    74     5.7   855.2    0.00 
 242    5:40   0.02   39.9    84    1.7    66     3.9   855.3    0.00 
 242    5:50   0.07   41.1    82    1.7   113     3.7   855.3    0.00 
 242    6:00   0.10   42.4    79    2.1   228     3.3   855.5    0.00 
 242    6:10   0.13   43.4    79    2.6   232     3.5   855.5    0.00 
 242    6:20   0.16   45.6    74    1.1   166     2.6   855.6    0.00 
 242    6:30   0.20   48.8    65    1.7   122     3.6   855.7    0.00 
 242    6:40   0.23   51.7    57    1.2    97     2.3   855.8    0.00 
 242    6:50   0.26   54.3    50    1.0   137     2.2   855.7    0.00 
 242    7:00   0.30   57.5    42    1.4    90     3.7   855.8    0.00 
 242    7:10   0.34   58.7    40    1.3   101     3.0   855.8    0.00 
 242    7:20   0.37   59.6    46    2.0   261     3.7   855.8    0.00 
 242    7:30   0.41   59.3    46    1.7   249     3.4   855.7    0.00 
 242    7:40   0.44   60.1    42    2.3   253     4.6   855.7    0.00 
 242    7:50   0.48   60.9    38    2.2   277     3.7   855.5    0.00 
 242    8:00   0.51   61.7    37    1.5   308     3.5   855.5    0.00 
 242    8:10   0.55   63.9    35    0.9    34     3.2   855.4    0.00 
 242    8:20   0.59   65.3    34    1.8    49     3.9   855.3    0.00 
 242    8:30   0.62   65.8    33    1.9   357     3.9   855.2    0.00 
 242    8:40   0.66   67.1    32    2.8    54     6.0   855.2    0.00 
 242    8:50   0.69   67.5    30    3.3    62     5.6   855.2    0.00 
 242    9:00   0.72   68.7    29    2.9   349     6.1   855.2    0.00 
 242    9:10   0.75   69.2    28    3.1    48     5.1   855.3    0.00 
 242    9:20   0.78   70.1    26    2.8   338     6.2   855.3    0.00 
 242    9:30   0.81   70.8    24    3.9   340     6.4   855.3    0.00 
 242    9:40   0.84   70.9    23    4.1   342     6.9   855.3    0.00 
 242    9:50   0.86   71.8    23    2.9   337     6.3   855.4    0.00 
 242   10:00   0.89   72.4    23    5.0   328     8.5   855.3    0.00 
 242   10:10   0.91   72.1    22    3.4    21     9.7   855.4    0.00 
 242   10:20   0.94   73.2    21    2.8   360     6.0   855.3    0.00 
 242   10:30   0.95   73.8    20    4.4    12     9.7   855.2    0.00 
 242   10:40   0.97   74.3    20    2.5    39     8.0   855.2    0.00 
 242   10:50   0.99   74.9    20    3.5    78     7.1   855.2    0.00 
 242   11:00   1.00   74.8    19    3.9    66     7.2   855.1    0.00 
 242   11:10   1.02   75.3    18    2.4   145     5.0   854.9    0.00 
 242   11:20   1.03   75.9    19    3.1    64     7.1   854.8    0.00 
 242   11:30   1.04   76.4    18    2.7   252     7.5   854.7    0.00 
 242   11:40   1.04   77.7    17    2.9   351     6.7   854.5    0.00 
 242   11:50   1.05   77.3    17    4.3   348     9.3   854.4    0.00 
 242   12:00   1.05   77.6    17    3.7    14     9.0   854.4    0.00 
 242   12:10   1.05   78.0    16    4.6    51     9.4   854.3    0.00 
 242   12:20   1.05   78.7    17    4.0    33     7.8   854.2    0.00 
 242   12:30   1.04   79.0    16    4.3     3     7.7   854.1    0.00 
 242   12:40   1.04   80.2    15    2.4    56     5.7   854.1    0.00 
 242   12:50   1.03   80.5    16    4.2    76     9.7   854.0    0.00 
 242   13:00   1.02   80.3    16    4.9    86    12.1   854.0    0.00 
 242   13:10   1.00   79.9    15    3.7    81     7.8   853.9    0.00 
 242   13:20   0.99   80.5    15    2.6   180     5.0   853.8    0.00 
 242   13:30   0.97   81.8    15    2.9   223     5.3   853.6    0.00 
 242   13:40   0.95   82.6    15    2.6   181     6.5   853.5    0.00 
 242   13:50   0.94   82.3    14    3.1    48     6.4   853.3    0.00 
 242   14:00   0.91   82.8    14    2.9    26     6.7   853.2    0.00 
 242   14:10   0.89   83.1    14    3.0    62     7.4   853.0    0.00 
 242   14:20   0.86   82.8    15    3.9    78    10.3   852.9    0.00 
 242   14:30   0.84   82.6    15    3.9    94     6.5   852.7    0.00 
 242   14:40   0.81   83.4    14    5.0    31    10.1   852.6    0.00 
 242   14:50   0.78   83.1    14    4.5    53     9.1   852.4    0.00 
 242   15:00   0.75   83.3    14    3.3    18     5.7   852.3    0.00 
 242   15:10   0.72   83.4    14    4.4    32    10.7   852.2    0.00 
 242   15:20   0.68   83.2    14    4.8    17    12.3   852.1    0.00 
 242   15:30   0.65   83.2    13    2.9    46     5.6   852.1    0.00 
 242   15:40   0.61   83.6    14    5.0    44     9.6   852.0    0.00 
 242   15:50   0.58   83.8    14    6.5   356    11.3   852.0    0.00 
 242   16:00   0.54   83.4    13    5.5   360    10.4   852.0    0.00 
 242   16:10   0.50   83.6    13    5.8    10    10.0   851.9    0.00 
 242   16:20   0.47   83.5    14    6.8    34    11.4   851.9    0.00 
 242   16:30   0.43   83.3    14    7.7    19    13.0   851.9    0.00 
 242   16:40   0.39   83.0    14    7.3   353    12.1   851.9    0.00 
 242   16:50   0.35   82.8    14    7.1     9    11.3   851.9    0.00 
 242   17:00   0.32   82.4    14    5.7     3     9.5   851.9    0.00 
 242   17:10   0.28   82.1    14    5.6    13     9.3   851.8    0.00 
 242   17:20   0.24   81.9    15    4.7    24     9.5   851.8    0.00 
 242   17:30   0.21   81.3    15    5.5    15     8.1   851.8    0.00 
 242   17:40   0.17   81.1    15    4.6   357     7.5   851.8    0.00 
 242   17:50   0.11   80.8    15    3.8   340     6.0   851.8    0.00 
 242   18:00   0.03   79.6    16    4.0   349     7.2   851.7    0.00 
 242   18:10   0.02   77.7    18    3.1    14     5.0   851.7    0.00 
 242   18:20   0.01   76.1    19    3.2     6     4.0   851.6    0.00 
 242   18:30   0.01   72.8    28    4.0   303     5.8   851.6    0.00 
 242   18:40   0.00   70.5    28    3.3   318     5.0   851.5    0.00 
 242   18:50   0.00   68.5    34    3.3   295     4.1   851.6    0.00 
 242   19:00   0.00   66.5    36    3.3   297     4.2   851.6    0.00 
 242   19:10   0.00   65.8    35    4.2   292     5.5   851.7    0.00 
 242   19:20   0.00   65.9    33    3.4   309     4.9   851.7    0.00 
 242   19:30   0.00   69.1    28    2.9   320     4.1   851.9    0.00 
 242   19:40   0.00   69.1    34    3.7   318     5.2   852.0    0.00 
 242   19:50   0.00   67.7    40    3.4   307     4.5   852.0    0.00 
 242   20:00   0.00   67.5    41    3.2   300     4.1   852.1    0.00 

Return to Smith Valley graphs page.


Western Regional Climate Center,wrcc@dri.edu